createdAt,value
2023-04-07T00:01:00.901Z,12.50
2023-04-07T00:03:28.123Z,12.27
2023-04-07T00:05:55.128Z,12.80
2023-04-07T00:08:22.221Z,13.07
2023-04-07T00:10:51.228Z,12.70
2023-04-07T00:13:18.189Z,11.80
2023-04-07T00:15:45.213Z,11.87
2023-04-07T00:18:12.110Z,12.60
2023-04-07T00:20:39.350Z,12.50
2023-04-07T00:23:06.402Z,12.93
2023-04-07T00:25:33.364Z,11.63
2023-04-07T00:28:00.219Z,12.37
2023-04-07T00:30:27.074Z,12.37
2023-04-07T00:32:59.306Z,11.97
2023-04-07T00:35:26.421Z,13.17
2023-04-07T00:37:53.544Z,12.23
2023-04-07T00:40:20.417Z,11.27
2023-04-07T00:42:47.195Z,11.60
2023-04-07T00:45:14.139Z,11.83
2023-04-07T00:47:41.345Z,12.00
2023-04-07T00:50:08.915Z,12.50
2023-04-07T00:52:36.401Z,11.63
2023-04-07T00:55:03.803Z,12.00
2023-04-07T00:57:30.614Z,11.83
2023-04-07T00:59:57.836Z,11.50
2023-04-07T01:03:02.387Z,11.97
2023-04-07T01:05:48.116Z,11.70
2023-04-07T01:08:33.472Z,11.37
2023-04-07T01:11:09.056Z,12.17
2023-04-07T01:13:46.343Z,11.40
2023-04-07T01:16:19.161Z,11.70
2023-04-07T01:18:48.929Z,11.10
2023-04-07T01:21:18.336Z,11.70
2023-04-07T01:23:57.617Z,11.33
2023-04-07T01:26:33.695Z,11.53
2023-04-07T01:29:33.246Z,12.17
2023-04-07T01:32:02.421Z,10.67
2023-04-07T01:34:32.063Z,11.73
2023-04-07T01:37:01.773Z,11.43
2023-04-07T01:39:29.448Z,11.80
2023-04-07T01:41:58.676Z,10.87
2023-04-07T01:44:26.520Z,11.27
2023-04-07T01:46:55.883Z,11.90
2023-04-07T01:49:25.545Z,11.70
2023-04-07T01:51:53.433Z,11.20
2023-04-07T01:54:22.034Z,11.43
2023-04-07T01:56:48.866Z,12.33
2023-04-07T01:59:15.824Z,12.00
2023-04-07T02:01:42.739Z,12.30
2023-04-07T02:04:26.426Z,11.37
2023-04-07T02:07:01.899Z,12.37
2023-04-07T02:09:32.196Z,12.43
2023-04-07T02:12:01.576Z,12.07
2023-04-07T02:14:29.392Z,12.23
2023-04-07T02:16:56.674Z,11.77
2023-04-07T02:19:23.740Z,12.03
2023-04-07T02:21:52.385Z,11.93
2023-04-07T02:24:22.554Z,11.07
2023-04-07T02:26:49.675Z,11.93
2023-04-07T02:29:16.699Z,11.93
2023-04-07T02:31:43.880Z,11.30
2023-04-07T02:34:10.984Z,11.67
2023-04-07T02:36:40.797Z,11.80
2023-04-07T02:39:12.745Z,11.40
2023-04-07T02:41:40.124Z,10.83
2023-04-07T02:44:07.030Z,10.73
2023-04-07T02:46:34.019Z,10.90
2023-04-07T02:49:01.291Z,11.27
2023-04-07T02:51:28.056Z,11.47
2023-04-07T02:53:55.661Z,10.50
2023-04-07T02:56:22.981Z,10.43
2023-04-07T02:58:50.029Z,11.07
2023-04-07T03:01:17.049Z,10.67
2023-04-07T03:03:45.290Z,10.77
2023-04-07T03:06:12.397Z,10.27
2023-04-07T03:08:39.395Z,10.73
2023-04-07T03:11:06.639Z,10.63
2023-04-07T03:13:33.715Z,10.60
2023-04-07T03:16:00.461Z,9.97
2023-04-07T03:18:27.373Z,10.10
2023-04-07T03:20:55.766Z,9.93
2023-04-07T03:23:24.353Z,9.97
2023-04-07T03:25:51.116Z,10.23
2023-04-07T03:28:18.073Z,10.00
2023-04-07T03:30:44.963Z,10.20
2023-04-07T03:33:12.617Z,9.43
2023-04-07T03:35:39.629Z,10.13
2023-04-07T03:38:06.593Z,9.10
2023-04-07T03:40:33.887Z,9.33
2023-04-07T03:43:01.554Z,9.13
2023-04-07T03:45:28.439Z,8.90
2023-04-07T03:47:55.755Z,9.07
2023-04-07T03:50:22.811Z,8.87
2023-04-07T03:52:49.704Z,9.53
2023-04-07T03:55:16.667Z,9.13
2023-04-07T03:57:44.344Z,9.00
2023-04-07T04:00:11.912Z,9.30
2023-04-07T04:02:38.979Z,9.17
2023-04-07T04:05:06.128Z,9.23
2023-04-07T04:07:33.895Z,9.47
2023-04-07T04:10:00.697Z,9.00
2023-04-07T04:12:27.653Z,8.73
2023-04-07T04:14:54.774Z,9.30
2023-04-07T04:17:21.804Z,9.43
2023-04-07T04:19:48.820Z,9.63
2023-04-07T04:22:15.806Z,9.40
2023-04-07T04:24:42.861Z,9.23
2023-04-07T04:27:09.817Z,9.00
2023-04-07T04:29:37.197Z,8.93
2023-04-07T04:32:04.347Z,8.53
2023-04-07T04:34:31.682Z,9.30
2023-04-07T04:36:58.614Z,9.30
2023-04-07T04:39:25.602Z,8.33
2023-04-07T04:41:52.628Z,8.33
2023-04-07T04:44:19.641Z,9.13
2023-04-07T04:46:46.769Z,9.03
2023-04-07T04:49:14.847Z,9.10
2023-04-07T04:51:42.087Z,9.10
2023-04-07T04:54:08.940Z,16.50
2023-04-07T04:56:36.335Z,8.37
2023-04-07T04:59:08.053Z,8.67
2023-04-07T05:01:34.989Z,8.67
2023-04-07T05:04:02.070Z,8.70
2023-04-07T05:06:31.322Z,8.20
2023-04-07T05:08:58.345Z,8.10
2023-04-07T05:11:25.275Z,7.87
2023-04-07T05:13:52.488Z,7.90
2023-04-07T05:16:19.653Z,8.43
2023-04-07T05:18:46.764Z,8.00
2023-04-07T05:21:13.823Z,8.43
2023-04-07T05:23:42.010Z,7.80
2023-04-07T05:26:08.843Z,8.43
2023-04-07T05:28:35.669Z,7.50
2023-04-07T05:31:02.622Z,8.07
2023-04-07T05:33:29.676Z,7.97
2023-04-07T05:35:56.634Z,7.67
2023-04-07T05:38:23.520Z,8.07
2023-04-07T05:40:50.999Z,7.17
2023-04-07T05:43:18.121Z,7.70
2023-04-07T05:45:45.045Z,6.37
2023-04-07T05:48:12.568Z,7.63
2023-04-07T05:50:39.397Z,6.77
2023-04-07T05:53:06.497Z,7.20
2023-04-07T05:55:34.652Z,6.93
2023-04-07T05:58:01.784Z,7.03
2023-04-07T06:00:28.654Z,7.10
2023-04-07T06:02:55.767Z,6.70
2023-04-07T06:05:22.624Z,6.70
2023-04-07T06:07:52.365Z,6.90
2023-04-07T06:10:19.399Z,6.37
2023-04-07T06:12:46.321Z,6.97
2023-04-07T06:15:13.492Z,6.60
2023-04-07T06:17:40.610Z,6.70
2023-04-07T06:20:07.989Z,6.53
2023-04-07T06:22:34.812Z,6.70
2023-04-07T06:25:01.598Z,6.87
2023-04-07T06:27:28.703Z,6.80
2023-04-07T06:29:57.082Z,6.30
2023-04-07T06:32:24.114Z,5.93
2023-04-07T06:34:50.939Z,7.00
2023-04-07T06:37:20.787Z,6.10
2023-04-07T06:39:47.898Z,5.87
2023-04-07T06:42:15.012Z,5.90
2023-04-07T06:44:42.116Z,5.70
2023-04-07T06:47:09.587Z,6.13
2023-04-07T06:49:37.569Z,6.33
2023-04-07T06:52:05.473Z,6.00
2023-04-07T06:54:32.497Z,6.00
2023-04-07T06:56:59.354Z,6.07
2023-04-07T06:59:26.557Z,6.37
2023-04-07T07:01:53.569Z,5.87
2023-04-07T07:04:20.768Z,6.07
2023-04-07T07:06:47.752Z,5.57
2023-04-07T07:09:14.450Z,6.07
2023-04-07T07:11:41.318Z,6.43
2023-04-07T07:14:08.262Z,6.47
2023-04-07T07:16:35.083Z,6.17
2023-04-07T07:19:01.992Z,6.20
2023-04-07T07:21:28.907Z,6.10
2023-04-07T07:23:55.861Z,6.47
2023-04-07T07:26:22.821Z,5.97
2023-04-07T07:28:49.804Z,5.97
2023-04-07T07:31:17.004Z,6.17
2023-04-07T07:33:46.237Z,6.27
2023-04-07T07:36:13.412Z,6.03
2023-04-07T07:38:40.782Z,6.43
2023-04-07T07:41:08.014Z,6.07
2023-04-07T07:43:35.095Z,6.17
2023-04-07T07:46:02.056Z,6.07
2023-04-07T07:48:29.284Z,6.67
2023-04-07T07:50:57.236Z,10.67
2023-04-07T07:53:24.184Z,6.03
2023-04-07T07:55:51.488Z,6.93
2023-04-07T07:58:18.585Z,5.73
2023-04-07T08:00:45.466Z,6.43
2023-04-07T08:03:12.436Z,6.47
2023-04-07T08:05:39.439Z,6.10
2023-04-07T08:08:06.326Z,6.23
2023-04-07T08:10:33.145Z,6.50
2023-04-07T08:13:00.028Z,6.03
2023-04-07T08:15:27.420Z,5.83
2023-04-07T08:17:55.525Z,5.63
2023-04-07T08:20:24.179Z,5.77
2023-04-07T08:22:51.177Z,5.90
2023-04-07T08:25:18.318Z,6.13
2023-04-07T08:27:45.705Z,5.60
2023-04-07T08:30:12.994Z,6.33
2023-04-07T08:32:44.659Z,6.10
2023-04-07T08:35:14.243Z,5.33
2023-04-07T08:37:43.694Z,5.83
2023-04-07T08:40:11.242Z,6.10
2023-04-07T08:42:45.285Z,6.07
2023-04-07T08:45:13.824Z,5.67
2023-04-07T08:47:44.488Z,5.30
2023-04-07T08:50:12.098Z,5.10
2023-04-07T08:52:48.850Z,5.23
2023-04-07T08:55:15.988Z,5.03
2023-04-07T08:57:43.623Z,5.00
2023-04-07T09:00:11.549Z,5.13
2023-04-07T09:02:40.114Z,5.03
2023-04-07T09:05:09.195Z,5.33
2023-04-07T09:07:37.978Z,4.80
2023-04-07T09:10:05.956Z,5.10
2023-04-07T09:12:34.543Z,4.73
2023-04-07T09:15:01.563Z,4.93
2023-04-07T09:17:29.788Z,5.13
2023-04-07T09:19:57.878Z,5.10
2023-04-07T09:22:47.633Z,4.73
2023-04-07T09:25:24.159Z,5.17
2023-04-07T09:28:01.923Z,4.77
2023-04-07T09:30:30.695Z,5.10
2023-04-07T09:32:59.204Z,4.90
2023-04-07T09:35:28.546Z,4.77
2023-04-07T09:38:09.890Z,4.97
2023-04-07T09:40:37.826Z,5.00
2023-04-07T09:43:06.113Z,4.73
2023-04-07T09:45:36.514Z,5.13
2023-04-07T09:48:20.398Z,5.27
2023-04-07T09:50:51.214Z,5.40
2023-04-07T09:53:20.313Z,4.93
2023-04-07T09:55:48.282Z,5.40
2023-04-07T09:58:16.933Z,5.63
2023-04-07T10:00:44.638Z,5.30
2023-04-07T10:03:12.479Z,5.53
2023-04-07T10:05:39.688Z,5.73
2023-04-07T10:08:06.961Z,5.60
2023-04-07T10:10:36.910Z,5.77
2023-04-07T10:13:06.296Z,5.40
2023-04-07T10:15:33.806Z,5.93
2023-04-07T10:18:01.100Z,6.07
2023-04-07T10:20:29.680Z,6.07
2023-04-07T10:23:09.297Z,5.93
2023-04-07T10:25:37.581Z,5.87
2023-04-07T10:28:08.420Z,5.60
2023-04-07T10:30:36.655Z,5.87
2023-04-07T10:33:03.776Z,5.40
2023-04-07T10:36:07.494Z,5.43
2023-04-07T10:38:34.725Z,5.30
2023-04-07T10:41:42.553Z,5.23
2023-04-07T10:44:31.459Z,5.27
2023-04-07T10:47:01.233Z,4.33
2023-04-07T10:49:28.108Z,5.30
2023-04-07T10:52:27.506Z,4.60
2023-04-07T10:55:32.215Z,4.73
2023-04-07T10:58:25.811Z,5.00
2023-04-07T11:01:02.198Z,4.83
2023-04-07T11:03:31.172Z,5.23
2023-04-07T11:06:04.810Z,4.90
2023-04-07T11:08:36.472Z,6.20
2023-04-07T11:11:09.597Z,4.63
2023-04-07T11:13:45.135Z,5.17
2023-04-07T11:16:12.852Z,5.47
2023-04-07T11:18:41.595Z,5.10
2023-04-07T11:21:09.643Z,4.50
2023-04-07T11:23:46.671Z,4.87
2023-04-07T11:26:15.894Z,5.60
2023-04-07T11:28:52.039Z,5.37
2023-04-07T11:31:31.648Z,5.27
2023-04-07T11:34:05.060Z,5.33
2023-04-07T11:36:39.022Z,5.30
2023-04-07T11:39:06.066Z,5.50
2023-04-07T11:41:34.019Z,5.60
2023-04-07T11:44:05.677Z,5.50
2023-04-07T11:46:32.625Z,5.60
2023-04-07T11:49:14.024Z,6.00
2023-04-07T11:51:43.134Z,5.97
2023-04-07T11:54:11.348Z,5.40
2023-04-07T11:56:48.468Z,5.40
2023-04-07T11:59:25.240Z,4.93
2023-04-07T12:01:56.036Z,5.97
2023-04-07T12:04:24.231Z,6.00
2023-04-07T12:06:51.933Z,5.70
2023-04-07T12:09:34.977Z,5.23
2023-04-07T12:12:03.665Z,5.57
2023-04-07T12:14:30.609Z,5.70
2023-04-07T12:16:58.372Z,6.07
2023-04-07T12:19:29.057Z,5.33
2023-04-07T12:21:57.031Z,5.10
2023-04-07T12:24:24.317Z,5.20
2023-04-07T12:26:51.246Z,4.97
2023-04-07T12:29:20.418Z,4.80
2023-04-07T12:31:50.669Z,5.07
2023-04-07T12:34:18.400Z,4.97
2023-04-07T12:36:45.382Z,4.63
2023-04-07T12:39:12.473Z,5.13
2023-04-07T12:41:40.004Z,5.20
2023-04-07T12:44:07.017Z,4.50
2023-04-07T12:46:34.333Z,4.30
2023-04-07T12:49:01.450Z,4.23
2023-04-07T12:51:28.653Z,4.50
2023-04-07T12:53:55.579Z,3.93
2023-04-07T12:56:25.536Z,4.27
2023-04-07T12:58:53.611Z,4.03
2023-04-07T13:01:21.543Z,4.43
2023-04-07T13:03:48.904Z,3.93
2023-04-07T13:06:16.271Z,3.40
2023-04-07T13:08:43.187Z,3.47
2023-04-07T13:11:10.106Z,3.23
2023-04-07T13:13:37.307Z,3.20
2023-04-07T13:16:04.563Z,3.13
2023-04-07T13:18:31.494Z,2.80
2023-04-07T13:21:33.775Z,3.40
2023-04-07T13:23:45.729Z,3.00
2023-04-07T13:26:12.638Z,2.80
2023-04-07T13:28:39.983Z,2.90
2023-04-07T13:31:07.968Z,2.80
2023-04-07T13:33:35.221Z,2.73
2023-04-07T13:36:02.328Z,2.67
2023-04-07T13:38:29.166Z,2.80
2023-04-07T13:40:55.946Z,2.50
2023-04-07T13:43:22.830Z,2.80
2023-04-07T13:45:49.994Z,2.87
2023-04-07T13:48:17.534Z,2.60
2023-04-07T13:50:44.577Z,2.47
2023-04-07T13:53:11.613Z,2.30
2023-04-07T13:55:39.178Z,2.50
2023-04-07T13:58:06.209Z,2.70
2023-04-07T14:00:35.913Z,2.20
2023-04-07T14:03:04.693Z,2.23
2023-04-07T14:05:31.994Z,2.17
2023-04-07T14:07:58.781Z,2.40
2023-04-07T14:10:26.010Z,2.43
2023-04-07T14:12:53.271Z,2.03
2023-04-07T14:15:20.379Z,1.80
2023-04-07T14:17:47.315Z,2.83
2023-04-07T14:20:14.377Z,9.03
2023-04-07T14:22:41.423Z,2.80
2023-04-07T14:25:08.349Z,2.30
2023-04-07T14:27:35.639Z,2.30
2023-04-07T14:30:05.963Z,2.63
2023-04-07T14:32:34.570Z,2.70
2023-04-07T14:35:02.133Z,2.70
2023-04-07T14:37:29.639Z,2.60
2023-04-07T14:42:26.997Z,2.70
2023-04-07T14:44:53.926Z,2.70
2023-04-07T14:47:21.233Z,2.77
2023-04-07T14:49:51.861Z,2.63
2023-04-07T14:52:22.144Z,4.10
2023-04-07T14:54:49.323Z,2.70
2023-04-07T14:57:17.140Z,3.00
2023-04-07T14:59:44.289Z,3.10
2023-04-07T15:02:13.643Z,3.07
2023-04-07T15:04:43.687Z,3.03
2023-04-07T15:07:10.792Z,3.43
2023-04-07T15:09:37.798Z,3.33
2023-04-07T15:12:05.413Z,3.57
2023-04-07T15:14:32.390Z,3.93
2023-04-07T15:16:59.206Z,4.17
2023-04-07T15:19:26.067Z,4.07
2023-04-07T15:21:53.050Z,4.03
2023-04-07T15:24:21.720Z,3.90
2023-04-07T15:26:49.754Z,4.20
2023-04-07T15:29:16.689Z,4.00
2023-04-07T15:31:43.773Z,3.90
2023-04-07T15:34:12.103Z,4.83
2023-04-07T15:36:38.970Z,4.40
2023-04-07T15:39:09.995Z,4.53
2023-04-07T15:41:37.204Z,4.47
2023-04-07T15:44:04.594Z,4.97
2023-04-07T15:46:34.614Z,4.80
2023-04-07T15:49:02.020Z,5.13
2023-04-07T15:51:29.837Z,5.40
2023-04-07T15:53:56.889Z,5.20
2023-04-07T15:56:25.052Z,5.30
2023-04-07T15:58:52.154Z,5.03
2023-04-07T16:01:19.454Z,5.03
2023-04-07T16:03:47.960Z,5.00
2023-04-07T16:06:15.590Z,4.93
2023-04-07T16:08:42.555Z,4.60
2023-04-07T16:11:09.597Z,5.10
2023-04-07T16:13:36.453Z,4.93
2023-04-07T16:16:03.572Z,4.80
2023-04-07T16:18:30.578Z,5.20
2023-04-07T16:20:57.440Z,5.00
2023-04-07T16:23:24.701Z,5.73
2023-04-07T16:25:51.567Z,5.63
2023-04-07T16:28:18.557Z,6.13
2023-04-07T16:30:45.560Z,6.03
2023-04-07T16:33:13.095Z,6.27
2023-04-07T16:35:40.250Z,5.90
2023-04-07T16:38:07.220Z,6.10
2023-04-07T16:40:34.401Z,6.43
2023-04-07T16:43:01.779Z,5.93
2023-04-07T16:45:28.863Z,6.00
2023-04-07T16:47:56.311Z,5.87
2023-04-07T16:50:23.320Z,5.70
2023-04-07T16:52:50.618Z,5.87
2023-04-07T16:55:17.819Z,5.67
2023-04-07T16:57:44.677Z,5.70
2023-04-07T17:00:12.422Z,5.30
2023-04-07T17:02:39.471Z,5.93
2023-04-07T17:05:06.851Z,5.43
2023-04-07T17:07:33.676Z,5.60
2023-04-07T17:10:00.806Z,5.60
2023-04-07T17:12:28.216Z,5.50
2023-04-07T17:14:55.069Z,5.70
2023-04-07T17:17:22.238Z,5.00
2023-04-07T17:19:49.105Z,5.33
2023-04-07T17:22:16.469Z,5.37
2023-04-07T17:24:43.935Z,5.30
2023-04-07T17:27:10.896Z,5.40
2023-04-07T17:29:38.153Z,5.30
2023-04-07T17:32:05.562Z,5.50
2023-04-07T17:34:32.703Z,5.50
2023-04-07T17:36:59.853Z,5.60
2023-04-07T17:39:26.988Z,5.67
2023-04-07T17:41:53.968Z,5.60
2023-04-07T17:44:21.281Z,5.13
2023-04-07T17:46:49.099Z,6.03
2023-04-07T17:49:16.156Z,6.00
2023-04-07T17:51:43.163Z,6.27
2023-04-07T17:54:10.020Z,5.60
2023-04-07T17:56:38.304Z,6.00
2023-04-07T17:59:05.252Z,6.60
2023-04-07T18:01:32.497Z,7.40
2023-04-07T18:04:00.527Z,7.93
2023-04-07T18:06:28.717Z,8.93
2023-04-07T18:08:56.109Z,10.60
2023-04-07T18:11:23.077Z,11.57
2023-04-07T18:13:50.290Z,11.37
2023-04-07T18:16:22.078Z,10.90
2023-04-07T18:18:49.721Z,10.97
2023-04-07T18:21:16.743Z,11.37
2023-04-07T18:23:43.790Z,11.70
2023-04-07T18:26:13.886Z,12.40
2023-04-07T18:28:40.892Z,11.13
2023-04-07T18:31:08.435Z,11.60
2023-04-07T18:33:36.493Z,11.13
2023-04-07T18:36:07.295Z,11.63
2023-04-07T18:38:36.333Z,10.90
2023-04-07T18:41:03.981Z,11.33
2023-04-07T18:43:31.624Z,11.23
2023-04-07T18:45:59.869Z,11.40
2023-04-07T18:48:27.415Z,11.70
2023-04-07T18:50:55.743Z,11.80
2023-04-07T18:53:24.619Z,13.30
2023-04-07T18:55:52.714Z,14.67
2023-04-07T18:58:20.340Z,14.43
2023-04-07T19:00:50.206Z,15.10
2023-04-07T19:03:17.792Z,15.53
2023-04-07T19:05:47.430Z,15.37
2023-04-07T19:08:16.083Z,16.17
2023-04-07T19:10:46.449Z,15.73
2023-04-07T19:13:15.916Z,15.03
2023-04-07T19:15:46.528Z,14.70
2023-04-07T19:18:13.765Z,14.13
2023-04-07T19:20:40.782Z,15.53
2023-04-07T19:23:08.134Z,13.90
2023-04-07T19:25:35.314Z,14.53
2023-04-07T19:28:03.352Z,13.40
2023-04-07T19:30:30.516Z,14.57
2023-04-07T19:32:58.011Z,15.07
2023-04-07T19:35:25.225Z,15.93
2023-04-07T19:37:52.714Z,15.93
2023-04-07T19:40:20.017Z,17.47
2023-04-07T19:42:47.352Z,15.90
2023-04-07T19:45:14.585Z,15.33
2023-04-07T19:47:42.593Z,15.53
2023-04-07T19:50:11.448Z,15.33
2023-04-07T19:52:39.097Z,14.93
2023-04-07T19:55:07.873Z,16.37
2023-04-07T19:57:40.494Z,14.80
2023-04-07T20:00:11.041Z,13.27
2023-04-07T20:02:41.468Z,13.27
2023-04-07T20:05:09.115Z,12.40
2023-04-07T20:07:36.007Z,12.87
2023-04-07T20:10:04.116Z,11.63
2023-04-07T20:12:31.052Z,11.57
2023-04-07T20:14:58.039Z,10.80
2023-04-07T20:17:24.998Z,9.67
2023-04-07T20:19:55.862Z,9.90
2023-04-07T20:22:23.178Z,9.00
2023-04-07T20:24:50.077Z,8.77
2023-04-07T20:27:18.524Z,8.90
2023-04-07T20:29:45.411Z,8.80
2023-04-07T20:32:12.493Z,7.53
2023-04-07T20:34:39.606Z,8.40
2023-04-07T20:37:06.726Z,8.30
2023-04-07T20:39:33.757Z,8.47
2023-04-07T20:42:00.632Z,8.67
2023-04-07T20:44:29.734Z,8.47
2023-04-07T20:46:56.961Z,8.17
2023-04-07T20:49:23.973Z,7.70
2023-04-07T20:51:53.906Z,8.27
2023-04-07T20:54:20.720Z,8.53
2023-04-07T20:56:47.695Z,8.03
2023-04-07T20:59:14.738Z,8.40
2023-04-07T21:01:41.873Z,8.13
2023-04-07T21:04:10.065Z,9.47
2023-04-07T21:06:37.428Z,9.13
2023-04-07T21:09:06.067Z,9.87
2023-04-07T21:11:33.015Z,9.60
2023-04-07T21:14:00.401Z,9.43
2023-04-07T21:16:27.622Z,10.40
2023-04-07T21:18:54.617Z,10.27
2023-04-07T21:21:23.418Z,11.80
2023-04-07T21:23:50.585Z,12.17
2023-04-07T21:26:17.548Z,12.80
2023-04-07T21:28:44.431Z,13.33
2023-04-07T21:31:11.632Z,14.20
2023-04-07T21:33:39.560Z,14.77
2023-04-07T21:36:06.886Z,16.13
2023-04-07T21:38:33.932Z,16.70
2023-04-07T21:41:01.191Z,17.00
2023-04-07T21:43:29.055Z,17.23
2023-04-07T21:45:56.893Z,17.97
2023-04-07T21:48:24.848Z,17.73
2023-04-07T21:50:52.566Z,18.50
2023-04-07T21:53:19.721Z,19.70
2023-04-07T21:55:46.602Z,19.73
2023-04-07T21:58:13.549Z,20.10
2023-04-07T22:00:40.675Z,19.17
2023-04-07T22:03:08.042Z,20.03
2023-04-07T22:05:35.138Z,19.70
2023-04-07T22:08:03.539Z,21.07
2023-04-07T22:10:30.781Z,19.83
2023-04-07T22:12:57.837Z,20.20
2023-04-07T22:15:25.304Z,19.27
2023-04-07T22:17:52.325Z,19.40
2023-04-07T22:20:19.514Z,19.43
2023-04-07T22:22:46.688Z,20.23
2023-04-07T22:25:13.770Z,18.63
2023-04-07T22:27:40.823Z,20.40
2023-04-07T22:30:10.280Z,19.50
2023-04-07T22:32:37.233Z,18.37
2023-04-07T22:35:04.820Z,19.67
2023-04-07T22:37:31.702Z,17.87
2023-04-07T22:39:58.695Z,17.43
2023-04-07T22:42:25.747Z,19.40
2023-04-07T22:44:53.081Z,17.27
2023-04-07T22:47:21.865Z,17.93
2023-04-07T22:49:48.928Z,17.37
2023-04-07T22:52:15.909Z,17.67
2023-04-07T22:54:42.831Z,16.47
2023-04-07T22:57:09.986Z,16.40
2023-04-07T22:59:40.050Z,15.93
2023-04-07T23:02:07.097Z,15.63
2023-04-07T23:04:34.297Z,15.67
2023-04-07T23:07:01.660Z,16.17
2023-04-07T23:09:28.754Z,15.30
2023-04-07T23:11:57.239Z,14.97
2023-04-07T23:14:24.026Z,15.23
2023-04-07T23:16:51.404Z,14.40
2023-04-07T23:19:18.497Z,14.57
2023-04-07T23:21:45.625Z,14.67
2023-04-07T23:24:12.530Z,14.73
2023-04-07T23:26:39.406Z,14.20
2023-04-07T23:29:06.290Z,13.50
2023-04-07T23:31:33.346Z,13.93
2023-04-07T23:34:00.275Z,13.97
2023-04-07T23:36:27.465Z,12.37
2023-04-07T23:38:59.283Z,13.57
2023-04-07T23:41:26.335Z,14.77
2023-04-07T23:43:53.200Z,14.13
2023-04-07T23:46:20.130Z,14.37
2023-04-07T23:48:47.137Z,13.13
2023-04-07T23:51:14.884Z,13.00
2023-04-07T23:53:41.862Z,14.33
2023-04-07T23:56:09.423Z,13.47
2023-04-07T23:58:36.434Z,12.67
